sensor_id;sensor_type;location;lat;lon;timestamp;pressure;altitude;pressure_sealevel;temperature;humidity
47556;BME280;33291;46.222;26.460;2022-11-03T00:01:11;97038.66;;;9.45;87.69
47556;BME280;33291;46.222;26.460;2022-11-03T00:03:37;97050.47;;;9.49;87.56
47556;BME280;33291;46.222;26.460;2022-11-03T00:06:03;97047.63;;;9.52;87.55
47556;BME280;33291;46.222;26.460;2022-11-03T00:08:29;97049.06;;;9.56;87.18
47556;BME280;33291;46.222;26.460;2022-11-03T00:11:11;97051.66;;;9.56;87.26
47556;BME280;33291;46.222;26.460;2022-11-03T00:13:39;97050.97;;;9.54;87.26
47556;BME280;33291;46.222;26.460;2022-11-03T00:16:05;97050.34;;;9.50;87.41
47556;BME280;33291;46.222;26.460;2022-11-03T00:18:31;97048.84;;;9.48;87.41
47556;BME280;33291;46.222;26.460;2022-11-03T00:21:04;97042.19;;;9.43;87.50
47556;BME280;33291;46.222;26.460;2022-11-03T00:23:33;97032.16;;;9.39;87.53
47556;BME280;33291;46.222;26.460;2022-11-03T00:28:42;97050.94;;;9.42;87.57
47556;BME280;33291;46.222;26.460;2022-11-03T00:31:13;97051.19;;;9.39;87.43
47556;BME280;33291;46.222;26.460;2022-11-03T00:33:40;97053.06;;;9.37;87.44
47556;BME280;33291;46.222;26.460;2022-11-03T00:36:06;97058.28;;;9.37;87.61
47556;BME280;33291;46.222;26.460;2022-11-03T00:38:32;97058.28;;;9.37;87.55
47556;BME280;33291;46.222;26.460;2022-11-03T00:44:01;97058.59;;;9.21;87.81
47556;BME280;33291;46.222;26.460;2022-11-03T00:46:27;97057.09;;;9.19;87.74
47556;BME280;33291;46.222;26.460;2022-11-03T00:48:54;97062.75;;;9.13;87.74
47556;BME280;33291;46.222;26.460;2022-11-03T00:51:22;97062.88;;;9.11;87.92
47556;BME280;33291;46.222;26.460;2022-11-03T00:53:57;97062.47;;;9.04;88.10
47556;BME280;33291;46.222;26.460;2022-11-03T00:56:28;97074.31;;;9.09;88.27
47556;BME280;33291;46.222;26.460;2022-11-03T01:02:15;97060.22;;;9.00;88.28
47556;BME280;33291;46.222;26.460;2022-11-03T01:04:40;97067.78;;;9.03;88.51
47556;BME280;33291;46.222;26.460;2022-11-03T01:07:25;97068.88;;;9.00;88.42
47556;BME280;33291;46.222;26.460;2022-11-03T01:09:50;97066.47;;;8.97;88.64
47556;BME280;33291;46.222;26.460;2022-11-03T01:12:17;97055.72;;;8.91;88.75
47556;BME280;33291;46.222;26.460;2022-11-03T01:14:45;97058.78;;;8.96;88.72
47556;BME280;33291;46.222;26.460;2022-11-03T01:17:18;97059.66;;;8.96;88.35
47556;BME280;33291;46.222;26.460;2022-11-03T01:19:43;97041.41;;;8.85;87.68
47556;BME280;33291;46.222;26.460;2022-11-03T01:22:09;97053.94;;;8.80;88.13
47556;BME280;33291;46.222;26.460;2022-11-03T01:24:35;97044.81;;;8.74;88.42
47556;BME280;33291;46.222;26.460;2022-11-03T01:27:01;97053.41;;;8.63;89.31
47556;BME280;33291;46.222;26.460;2022-11-03T01:29:26;97051.97;;;8.59;89.19
47556;BME280;33291;46.222;26.460;2022-11-03T01:31:52;97052.59;;;8.63;89.53
47556;BME280;33291;46.222;26.460;2022-11-03T01:34:19;97034.97;;;8.55;89.31
47556;BME280;33291;46.222;26.460;2022-11-03T01:36:46;97049.03;;;8.64;89.43
47556;BME280;33291;46.222;26.460;2022-11-03T01:39:13;97042.66;;;8.57;89.68
47556;BME280;33291;46.222;26.460;2022-11-03T01:41:40;97042.53;;;8.58;89.68
47556;BME280;33291;46.222;26.460;2022-11-03T01:46:33;97047.44;;;8.50;89.94
47556;BME280;33291;46.222;26.460;2022-11-03T01:51:32;97047.16;;;8.42;90.51
47556;BME280;33291;46.222;26.460;2022-11-03T01:54:02;97046.97;;;8.45;90.57
47556;BME280;33291;46.222;26.460;2022-11-03T01:56:32;97057.25;;;8.46;90.01
47556;BME280;33291;46.222;26.460;2022-11-03T01:58:59;97062.84;;;8.40;89.20
47556;BME280;33291;46.222;26.460;2022-11-03T02:01:25;97064.94;;;8.35;88.60
47556;BME280;33291;46.222;26.460;2022-11-03T02:03:53;97064.13;;;8.34;88.55
47556;BME280;33291;46.222;26.460;2022-11-03T02:06:22;97069.41;;;8.33;88.49
47556;BME280;33291;46.222;26.460;2022-11-03T02:09:00;97072.13;;;8.31;88.46
47556;BME280;33291;46.222;26.460;2022-11-03T02:11:27;97076.50;;;8.31;88.57
47556;BME280;33291;46.222;26.460;2022-11-03T02:14:12;97074.47;;;8.23;89.40
47556;BME280;33291;46.222;26.460;2022-11-03T02:16:39;97076.44;;;8.19;89.70
47556;BME280;33291;46.222;26.460;2022-11-03T02:19:09;97067.34;;;8.14;89.92
47556;BME280;33291;46.222;26.460;2022-11-03T02:21:52;97079.69;;;8.10;90.76
47556;BME280;33291;46.222;26.460;2022-11-03T02:26:53;97073.81;;;7.95;91.35
47556;BME280;33291;46.222;26.460;2022-11-03T02:29:20;97082.31;;;7.97;91.78
47556;BME280;33291;46.222;26.460;2022-11-03T02:31:57;97074.03;;;7.92;91.43
47556;BME280;33291;46.222;26.460;2022-11-03T02:37:08;97076.69;;;8.04;91.62
47556;BME280;33291;46.222;26.460;2022-11-03T02:39:40;97079.72;;;7.97;91.78
47556;BME280;33291;46.222;26.460;2022-11-03T02:42:08;97092.66;;;8.10;91.66
47556;BME280;33291;46.222;26.460;2022-11-03T02:44:36;97097.50;;;8.15;91.69
47556;BME280;33291;46.222;26.460;2022-11-03T02:47:06;97084.66;;;8.13;91.42
47556;BME280;33291;46.222;26.460;2022-11-03T02:49:37;97089.56;;;8.05;92.16
47556;BME280;33291;46.222;26.460;2022-11-03T02:52:05;97073.59;;;7.98;91.91
47556;BME280;33291;46.222;26.460;2022-11-03T02:54:34;97090.38;;;8.06;91.96
47556;BME280;33291;46.222;26.460;2022-11-03T02:57:23;97092.28;;;8.04;92.15
47556;BME280;33291;46.222;26.460;2022-11-03T02:59:56;97092.28;;;8.04;92.53
47556;BME280;33291;46.222;26.460;2022-11-03T03:02:30;97080.66;;;7.96;92.30
47556;BME280;33291;46.222;26.460;2022-11-03T03:05:00;97098.59;;;7.99;92.45
47556;BME280;33291;46.222;26.460;2022-11-03T03:07:32;97094.00;;;8.03;92.38
47556;BME280;33291;46.222;26.460;2022-11-03T03:10:09;97085.63;;;7.99;92.50
47556;BME280;33291;46.222;26.460;2022-11-03T03:12:39;97080.66;;;7.96;92.31
47556;BME280;33291;46.222;26.460;2022-11-03T03:15:07;97089.03;;;8.00;91.78
47556;BME280;33291;46.222;26.460;2022-11-03T03:17:40;97092.28;;;8.04;91.70
47556;BME280;33291;46.222;26.460;2022-11-03T03:20:30;97092.28;;;8.04;91.32
47556;BME280;33291;46.222;26.460;2022-11-03T03:25:35;97094.22;;;8.00;91.15
47556;BME280;33291;46.222;26.460;2022-11-03T03:28:12;97089.38;;;7.95;91.10
47556;BME280;33291;46.222;26.460;2022-11-03T03:30:41;97071.25;;;7.82;91.23
47556;BME280;33291;46.222;26.460;2022-11-03T03:33:08;97089.69;;;7.91;92.17
47556;BME280;33291;46.222;26.460;2022-11-03T03:35:35;97095.72;;;7.91;92.76
47556;BME280;33291;46.222;26.460;2022-11-03T03:38:12;97084.22;;;7.82;92.99
47556;BME280;33291;46.222;26.460;2022-11-03T03:40:41;97094.22;;;7.76;93.33
47556;BME280;33291;46.222;26.460;2022-11-03T03:43:10;97094.50;;;7.84;93.50
47556;BME280;33291;46.222;26.460;2022-11-03T03:45:37;97096.75;;;7.89;93.22
47556;BME280;33291;46.222;26.460;2022-11-03T03:48:04;97091.56;;;7.89;92.76
47556;BME280;33291;46.222;26.460;2022-11-03T03:50:33;97094.56;;;7.95;92.54
47556;BME280;33291;46.222;26.460;2022-11-03T03:53:02;97080.06;;;7.93;92.42
47556;BME280;33291;46.222;26.460;2022-11-03T03:55:35;97096.13;;;7.98;91.55
47556;BME280;33291;46.222;26.460;2022-11-03T03:58:02;97097.16;;;7.95;91.74
47556;BME280;33291;46.222;26.460;2022-11-03T04:00:28;97093.13;;;7.91;91.61
47556;BME280;33291;46.222;26.460;2022-11-03T04:02:57;97099.97;;;7.92;91.55
47556;BME280;33291;46.222;26.460;2022-11-03T04:05:24;97100.91;;;7.91;91.65
47556;BME280;33291;46.222;26.460;2022-11-03T04:07:49;97092.94;;;7.81;91.73
47556;BME280;33291;46.222;26.460;2022-11-03T04:10:21;97065.81;;;7.61;91.62
47556;BME280;33291;46.222;26.460;2022-11-03T04:12:47;97095.84;;;7.77;91.89
47556;BME280;33291;46.222;26.460;2022-11-03T04:15:39;97091.69;;;7.74;91.91
47556;BME280;33291;46.222;26.460;2022-11-03T04:18:17;97097.09;;;7.71;91.82
47556;BME280;33291;46.222;26.460;2022-11-03T04:21:02;97097.63;;;7.63;92.04
47556;BME280;33291;46.222;26.460;2022-11-03T04:23:46;97096.19;;;7.59;92.11
47556;BME280;33291;46.222;26.460;2022-11-03T04:26:14;97097.13;;;7.58;92.23
47556;BME280;33291;46.222;26.460;2022-11-03T04:28:41;97093.59;;;7.59;92.26
47556;BME280;33291;46.222;26.460;2022-11-03T04:31:13;97090.06;;;7.60;92.12
47556;BME280;33291;46.222;26.460;2022-11-03T04:33:39;97085.84;;;7.59;92.05
47556;BME280;33291;46.222;26.460;2022-11-03T04:36:31;97093.50;;;7.61;91.94
47556;BME280;33291;46.222;26.460;2022-11-03T04:38:57;97105.81;;;7.57;92.04
47556;BME280;33291;46.222;26.460;2022-11-03T04:41:24;97091.97;;;7.45;92.10
47556;BME280;33291;46.222;26.460;2022-11-03T04:43:52;97093.00;;;7.43;92.15
47556;BME280;33291;46.222;26.460;2022-11-03T04:46:28;97123.69;;;7.49;92.28
47556;BME280;33291;46.222;26.460;2022-11-03T04:48:58;97115.78;;;7.51;92.56
47556;BME280;33291;46.222;26.460;2022-11-03T04:51:26;97125.25;;;7.52;92.57
47556;BME280;33291;46.222;26.460;2022-11-03T04:53:57;97121.50;;;7.43;92.49
47556;BME280;33291;46.222;26.460;2022-11-03T04:56:24;97122.44;;;7.42;92.58
47556;BME280;33291;46.222;26.460;2022-11-03T04:58:50;97123.47;;;7.39;92.92
47556;BME280;33291;46.222;26.460;2022-11-03T05:01:19;97118.69;;;7.33;93.09
47556;BME280;33291;46.222;26.460;2022-11-03T05:03:48;97135.81;;;7.36;93.18
47556;BME280;33291;46.222;26.460;2022-11-03T05:06:20;97138.72;;;7.31;93.33
47556;BME280;33291;46.222;26.460;2022-11-03T05:08:55;97141.00;;;7.36;93.42
47556;BME280;33291;46.222;26.460;2022-11-03T05:14:02;97128.53;;;7.28;93.80
47556;BME280;33291;46.222;26.460;2022-11-03T05:16:29;97138.19;;;7.39;93.53
47556;BME280;33291;46.222;26.460;2022-11-03T05:18:55;97145.66;;;7.43;93.60
47556;BME280;33291;46.222;26.460;2022-11-03T05:21:24;97150.03;;;7.43;93.84
47556;BME280;33291;46.222;26.460;2022-11-03T05:24:01;97152.31;;;7.47;93.54
47556;BME280;33291;46.222;26.460;2022-11-03T05:26:31;97161.44;;;7.53;93.37
47556;BME280;33291;46.222;26.460;2022-11-03T05:29:00;97156.47;;;7.50;93.39
47556;BME280;33291;46.222;26.460;2022-11-03T05:31:28;97167.84;;;7.60;93.40
47556;BME280;33291;46.222;26.460;2022-11-03T05:34:40;97169.41;;;7.63;93.90
47556;BME280;33291;46.222;26.460;2022-11-03T05:39:36;97167.84;;;7.60;93.80
47556;BME280;33291;46.222;26.460;2022-11-03T05:42:31;97175.94;;;7.69;93.63
47556;BME280;33291;46.222;26.460;2022-11-03T05:44:59;97177.38;;;7.73;93.55
47556;BME280;33291;46.222;26.460;2022-11-03T05:50:00;97183.09;;;7.78;93.36
47556;BME280;33291;46.222;26.460;2022-11-03T05:52:26;97176.03;;;7.80;93.29
47556;BME280;33291;46.222;26.460;2022-11-03T05:54:54;97187.97;;;7.82;92.86
47556;BME280;33291;46.222;26.460;2022-11-03T05:57:21;97168.47;;;7.77;92.54
47556;BME280;33291;46.222;26.460;2022-11-03T05:59:49;97190.03;;;7.90;91.97
47556;BME280;33291;46.222;26.460;2022-11-03T06:02:39;97191.59;;;7.93;91.92
47556;BME280;33291;46.222;26.460;2022-11-03T06:05:20;97187.03;;;7.96;91.86
47556;BME280;33291;46.222;26.460;2022-11-03T06:07:47;97187.03;;;7.96;93.13
47556;BME280;33291;46.222;26.460;2022-11-03T06:10:24;97200.38;;;8.03;93.17
47556;BME280;33291;46.222;26.460;2022-11-03T06:12:53;97202.06;;;8.04;93.97
47556;BME280;33291;46.222;26.460;2022-11-03T06:15:28;97208.69;;;8.08;93.49
47556;BME280;33291;46.222;26.460;2022-11-03T06:17:53;97208.38;;;8.13;92.97
47556;BME280;33291;46.222;26.460;2022-11-03T06:20:20;97199.88;;;8.11;92.64
47556;BME280;33291;46.222;26.460;2022-11-03T06:22:46;97212.22;;;8.20;92.31
47556;BME280;33291;46.222;26.460;2022-11-03T06:25:29;97201.72;;;8.22;92.00
47556;BME280;33291;46.222;26.460;2022-11-03T06:28:00;97210.84;;;8.27;91.78
47556;BME280;33291;46.222;26.460;2022-11-03T06:30:34;97206.38;;;8.29;93.42
47556;BME280;33291;46.222;26.460;2022-11-03T06:33:09;97215.50;;;8.35;93.10
47556;BME280;33291;46.222;26.460;2022-11-03T06:35:37;97204.91;;;8.38;92.39
47556;BME280;33291;46.222;26.460;2022-11-03T06:38:10;97188.72;;;8.34;91.58
47556;BME280;33291;46.222;26.460;2022-11-03T06:40:39;97206.78;;;8.49;91.09
47556;BME280;33291;46.222;26.460;2022-11-03T06:43:14;97208.09;;;8.54;90.45
47556;BME280;33291;46.222;26.460;2022-11-03T06:45:50;97206.72;;;8.62;90.07
47556;BME280;33291;46.222;26.460;2022-11-03T06:48:21;97201.31;;;8.65;89.91
47556;BME280;33291;46.222;26.460;2022-11-03T06:50:47;97201.94;;;8.68;89.66
47556;BME280;33291;46.222;26.460;2022-11-03T06:53:20;97200.06;;;8.70;89.57
47556;BME280;33291;46.222;26.460;2022-11-03T06:55:47;97199.50;;;8.78;89.50
47556;BME280;33291;46.222;26.460;2022-11-03T06:58:16;97197.41;;;8.83;89.45
47556;BME280;33291;46.222;26.460;2022-11-03T07:00:44;97193.66;;;8.87;89.83
47556;BME280;33291;46.222;26.460;2022-11-03T07:03:23;97197.56;;;8.93;89.35
47556;BME280;33291;46.222;26.460;2022-11-03T07:08:42;97190.66;;;9.05;88.61
47556;BME280;33291;46.222;26.460;2022-11-03T07:11:28;97185.94;;;9.10;88.35
47556;BME280;33291;46.222;26.460;2022-11-03T07:14:01;97190.81;;;9.15;88.44
47556;BME280;33291;46.222;26.460;2022-11-03T07:16:40;97200.41;;;9.25;87.84
47556;BME280;33291;46.222;26.460;2022-11-03T07:19:32;97192.28;;;9.30;87.44
47556;BME280;33291;46.222;26.460;2022-11-03T07:22:01;97186.72;;;9.35;87.50
47556;BME280;33291;46.222;26.460;2022-11-03T07:24:34;97177.19;;;9.35;87.32
47556;BME280;33291;46.222;26.460;2022-11-03T07:29:35;97177.66;;;9.52;87.04
47556;BME280;33291;46.222;26.460;2022-11-03T07:32:01;97171.28;;;9.56;86.71
47556;BME280;33291;46.222;26.460;2022-11-03T07:34:30;97172.72;;;9.60;86.39
47556;BME280;33291;46.222;26.460;2022-11-03T07:36:57;97173.06;;;9.67;86.02
47556;BME280;33291;46.222;26.460;2022-11-03T07:39:26;97173.69;;;9.70;86.09
47556;BME280;33291;46.222;26.460;2022-11-03T07:41:53;97166.22;;;9.77;85.49
47556;BME280;33291;46.222;26.460;2022-11-03T07:44:20;97155.00;;;9.76;85.23
47556;BME280;33291;46.222;26.460;2022-11-03T07:46:46;97164.59;;;9.87;84.48
47556;BME280;33291;46.222;26.460;2022-11-03T07:49:26;97167.66;;;9.92;84.51
47556;BME280;33291;46.222;26.460;2022-11-03T07:51:52;97156.44;;;9.92;84.42
47556;BME280;33291;46.222;26.460;2022-11-03T07:54:23;97155.72;;;10.01;84.21
47556;BME280;33291;46.222;26.460;2022-11-03T07:57:04;97146.50;;;10.08;84.01
47556;BME280;33291;46.222;26.460;2022-11-03T07:59:35;97132.50;;;10.09;83.22
47556;BME280;33291;46.222;26.460;2022-11-03T08:02:01;97146.69;;;10.28;82.69
47556;BME280;33291;46.222;26.460;2022-11-03T08:04:37;97150.00;;;10.53;82.36
47556;BME280;33291;46.222;26.460;2022-11-03T08:07:03;97136.09;;;10.63;81.79
47556;BME280;33291;46.222;26.460;2022-11-03T08:09:28;97145.84;;;10.82;80.50
47556;BME280;33291;46.222;26.460;2022-11-03T08:11:54;97140.72;;;10.92;80.02
47556;BME280;33291;46.222;26.460;2022-11-03T08:14:19;97131.47;;;10.99;79.61
47556;BME280;33291;46.222;26.460;2022-11-03T08:16:44;97115.63;;;11.12;79.10
47556;BME280;33291;46.222;26.460;2022-11-03T08:19:10;97121.78;;;11.32;78.61
47556;BME280;33291;46.222;26.460;2022-11-03T08:21:35;97126.31;;;11.51;77.78
47556;BME280;33291;46.222;26.460;2022-11-03T08:24:01;97121.97;;;11.62;76.42
47556;BME280;33291;46.222;26.460;2022-11-03T08:26:27;97125.13;;;11.65;75.71
47556;BME280;33291;46.222;26.460;2022-11-03T08:28:52;97124.44;;;11.63;75.84
47556;BME280;33291;46.222;26.460;2022-11-03T08:31:18;97127.59;;;11.67;75.99
47556;BME280;33291;46.222;26.460;2022-11-03T08:33:43;97127.34;;;11.70;75.46
47556;BME280;33291;46.222;26.460;2022-11-03T08:36:09;97129.69;;;11.73;75.27
47556;BME280;33291;46.222;26.460;2022-11-03T08:38:35;97120.06;;;11.73;74.90
47556;BME280;33291;46.222;26.460;2022-11-03T08:41:01;97125.16;;;11.75;75.00
47556;BME280;33291;46.222;26.460;2022-11-03T08:43:28;97122.53;;;11.75;74.86
47556;BME280;33291;46.222;26.460;2022-11-03T08:45:54;97117.31;;;11.75;74.70
47556;BME280;33291;46.222;26.460;2022-11-03T08:48:20;97122.31;;;11.78;74.70
47556;BME280;33291;46.222;26.460;2022-11-03T08:50:47;97128.78;;;11.84;74.95
47556;BME280;33291;46.222;26.460;2022-11-03T08:53:15;97111.63;;;11.81;74.87
47556;BME280;33291;46.222;26.460;2022-11-03T08:55:40;97091.00;;;11.78;74.38
47556;BME280;33291;46.222;26.460;2022-11-03T08:58:06;97107.22;;;11.91;74.26
47556;BME280;33291;46.222;26.460;2022-11-03T09:00:31;97113.91;;;12.05;74.05
47556;BME280;33291;46.222;26.460;2022-11-03T09:02:57;97116.16;;;12.20;73.52
47556;BME280;33291;46.222;26.460;2022-11-03T09:05:22;97106.56;;;12.40;72.38
47556;BME280;33291;46.222;26.460;2022-11-03T09:07:48;97106.31;;;12.62;70.99
47556;BME280;33291;46.222;26.460;2022-11-03T09:10:13;97100.53;;;12.69;70.42
47556;BME280;33291;46.222;26.460;2022-11-03T09:12:39;97097.94;;;12.78;69.43
47556;BME280;33291;46.222;26.460;2022-11-03T09:15:05;97104.81;;;12.89;68.58
47556;BME280;33291;46.222;26.460;2022-11-03T09:17:31;97102.88;;;12.91;67.97
47556;BME280;33291;46.222;26.460;2022-11-03T09:19:56;97092.28;;;12.93;66.90
47556;BME280;33291;46.222;26.460;2022-11-03T09:22:22;97095.72;;;12.93;65.28
47556;BME280;33291;46.222;26.460;2022-11-03T09:24:48;97094.75;;;12.94;64.93
47556;BME280;33291;46.222;26.460;2022-11-03T09:27:14;97096.41;;;12.95;64.39
47556;BME280;33291;46.222;26.460;2022-11-03T09:29:39;97098.03;;;12.96;64.18
47556;BME280;33291;46.222;26.460;2022-11-03T09:32:05;97092.81;;;12.96;64.80
47556;BME280;33291;46.222;26.460;2022-11-03T09:34:31;97089.25;;;12.97;65.73
47556;BME280;33291;46.222;26.460;2022-11-03T09:36:56;97090.75;;;13.00;66.23
47556;BME280;33291;46.222;26.460;2022-11-03T09:39:22;97085.94;;;13.05;65.72
47556;BME280;33291;46.222;26.460;2022-11-03T09:41:48;97073.97;;;13.03;65.86
47556;BME280;33291;46.222;26.460;2022-11-03T09:44:13;97080.13;;;13.11;64.30
47556;BME280;33291;46.222;26.460;2022-11-03T09:46:39;97079.00;;;13.24;63.26
47556;BME280;33291;46.222;26.460;2022-11-03T09:49:04;97070.44;;;13.31;62.24
47556;BME280;33291;46.222;26.460;2022-11-03T09:51:31;97069.50;;;13.42;60.64
47556;BME280;33291;46.222;26.460;2022-11-03T09:54:02;97070.69;;;13.58;59.28
47556;BME280;33291;46.222;26.460;2022-11-03T09:56:29;97064.75;;;13.65;58.51
47556;BME280;33291;46.222;26.460;2022-11-03T09:58:55;97065.13;;;13.71;57.70
47556;BME280;33291;46.222;26.460;2022-11-03T10:01:22;97053.56;;;13.63;56.85
47556;BME280;33291;46.222;26.460;2022-11-03T10:03:47;97065.53;;;13.76;56.63
47556;BME280;33291;46.222;26.460;2022-11-03T10:06:13;97072.50;;;13.85;55.94
47556;BME280;33291;46.222;26.460;2022-11-03T10:08:42;97055.91;;;13.94;55.35
47556;BME280;33291;46.222;26.460;2022-11-03T10:11:09;97063.66;;;14.14;55.35
47556;BME280;33291;46.222;26.460;2022-11-03T10:13:38;97062.94;;;14.21;54.87
47556;BME280;33291;46.222;26.460;2022-11-03T10:16:06;97060.16;;;14.23;54.49
47556;BME280;33291;46.222;26.460;2022-11-03T10:18:34;97062.78;;;14.23;53.56
47556;BME280;33291;46.222;26.460;2022-11-03T10:21:05;97059.63;;;14.19;53.72
47556;BME280;33291;46.222;26.460;2022-11-03T10:23:32;97054.81;;;14.15;53.88
47556;BME280;33291;46.222;26.460;2022-11-03T10:26:14;97053.50;;;14.11;53.54
47556;BME280;33291;46.222;26.460;2022-11-03T10:29:00;97045.94;;;14.08;53.89
47556;BME280;33291;46.222;26.460;2022-11-03T10:31:39;97043.44;;;14.06;54.08
47556;BME280;33291;46.222;26.460;2022-11-03T10:34:21;97035.03;;;14.02;54.11
47556;BME280;33291;46.222;26.460;2022-11-03T10:36:47;97026.38;;;14.02;54.23
47556;BME280;33291;46.222;26.460;2022-11-03T10:39:27;97030.50;;;14.04;54.42
47556;BME280;33291;46.222;26.460;2022-11-03T10:41:58;97032.69;;;14.09;54.42
47556;BME280;33291;46.222;26.460;2022-11-03T10:44:28;97003.31;;;14.06;53.73
47556;BME280;33291;46.222;26.460;2022-11-03T10:46:58;97008.50;;;14.15;53.66
47556;BME280;33291;46.222;26.460;2022-11-03T10:49:27;97009.69;;;14.21;53.81
47556;BME280;33291;46.222;26.460;2022-11-03T10:51:57;97011.34;;;14.22;53.90
47556;BME280;33291;46.222;26.460;2022-11-03T10:54:25;97013.97;;;14.22;53.42
47556;BME280;33291;46.222;26.460;2022-11-03T10:56:50;96997.88;;;14.17;53.27
47556;BME280;33291;46.222;26.460;2022-11-03T10:59:24;97005.75;;;14.17;53.85
47556;BME280;33291;46.222;26.460;2022-11-03T11:01:56;97006.84;;;14.14;53.21
47556;BME280;33291;46.222;26.460;2022-11-03T11:04:22;97000.81;;;14.14;53.11
47556;BME280;33291;46.222;26.460;2022-11-03T11:06:47;96996.53;;;14.13;53.36
47556;BME280;33291;46.222;26.460;2022-11-03T11:09:17;96994.56;;;14.15;52.97
47556;BME280;33291;46.222;26.460;2022-11-03T11:12:13;96990.97;;;14.16;53.79
47556;BME280;33291;46.222;26.460;2022-11-03T11:14:57;96973.19;;;14.01;53.58
47556;BME280;33291;46.222;26.460;2022-11-03T11:17:39;96981.75;;;14.12;53.18
47556;BME280;33291;46.222;26.460;2022-11-03T11:22:45;96976.00;;;14.08;54.42
47556;BME280;33291;46.222;26.460;2022-11-03T11:25:11;96970.94;;;14.07;54.60
47556;BME280;33291;46.222;26.460;2022-11-03T11:32:59;96966.28;;;14.00;55.85
47556;BME280;33291;46.222;26.460;2022-11-03T11:37:51;96961.63;;;13.94;55.90
47556;BME280;33291;46.222;26.460;2022-11-03T11:43:22;96949.50;;;13.93;57.85
47556;BME280;33291;46.222;26.460;2022-11-03T11:51:36;96950.88;;;13.97;58.25
47556;BME280;33291;46.222;26.460;2022-11-03T11:54:06;96945.38;;;14.09;58.32
47556;BME280;33291;46.222;26.460;2022-11-03T11:56:32;96948.47;;;14.22;57.94
47556;BME280;33291;46.222;26.460;2022-11-03T11:58:58;96939.09;;;14.37;57.39
47556;BME280;33291;46.222;26.460;2022-11-03T12:01:31;96935.16;;;14.60;56.53
47556;BME280;33291;46.222;26.460;2022-11-03T12:04:05;96934.00;;;14.80;54.85
47556;BME280;33291;46.222;26.460;2022-11-03T12:06:32;96918.53;;;14.95;53.78
47556;BME280;33291;46.222;26.460;2022-11-03T12:11:46;96916.38;;;15.33;50.72
47556;BME280;33291;46.222;26.460;2022-11-03T12:16:53;96914.84;;;15.65;48.53
47556;BME280;33291;46.222;26.460;2022-11-03T12:19:40;96904.41;;;15.81;47.93
47556;BME280;33291;46.222;26.460;2022-11-03T12:24:51;96906.09;;;15.99;47.38
47556;BME280;33291;46.222;26.460;2022-11-03T12:29:56;96905.13;;;16.08;44.43
47556;BME280;33291;46.222;26.460;2022-11-03T12:32:23;96899.00;;;16.08;43.25
47556;BME280;33291;46.222;26.460;2022-11-03T12:34:49;96899.19;;;16.14;43.37
47556;BME280;33291;46.222;26.460;2022-11-03T12:37:14;96893.63;;;16.17;43.06
47556;BME280;33291;46.222;26.460;2022-11-03T12:39:40;96890.00;;;16.19;43.14
47556;BME280;33291;46.222;26.460;2022-11-03T12:42:06;96890.66;;;16.21;42.44
47556;BME280;33291;46.222;26.460;2022-11-03T12:44:32;96888.69;;;16.23;43.21
47556;BME280;33291;46.222;26.460;2022-11-03T12:46:57;96883.25;;;16.24;42.44
47556;BME280;33291;46.222;26.460;2022-11-03T12:49:23;96889.34;;;16.25;42.19
47556;BME280;33291;46.222;26.460;2022-11-03T12:51:48;96890.66;;;16.21;41.28
47556;BME280;33291;46.222;26.460;2022-11-03T12:54:14;96889.16;;;16.18;41.62
47556;BME280;33291;46.222;26.460;2022-11-03T12:56:39;96892.63;;;16.19;41.73
47556;BME280;33291;46.222;26.460;2022-11-03T12:59:05;96860.59;;;15.98;42.20
47556;BME280;33291;46.222;26.460;2022-11-03T13:01:32;96891.66;;;16.11;41.79
47556;BME280;33291;46.222;26.460;2022-11-03T13:03:58;96886.56;;;16.10;42.03
47556;BME280;33291;46.222;26.460;2022-11-03T13:06:24;96881.97;;;16.04;41.64
47556;BME280;33291;46.222;26.460;2022-11-03T13:08:49;96883.09;;;16.01;41.34
47556;BME280;33291;46.222;26.460;2022-11-03T13:11:14;96877.50;;;16.04;41.81
47556;BME280;33291;46.222;26.460;2022-11-03T13:13:59;96881.13;;;16.03;41.47
47556;BME280;33291;46.222;26.460;2022-11-03T13:16:24;96875.03;;;16.03;41.48
47556;BME280;33291;46.222;26.460;2022-11-03T13:18:50;96866.34;;;16.02;41.54
47556;BME280;33291;46.222;26.460;2022-11-03T13:21:16;96865.03;;;16.06;40.26
47556;BME280;33291;46.222;26.460;2022-11-03T13:23:42;96860.44;;;16.00;40.54
47556;BME280;33291;46.222;26.460;2022-11-03T13:26:07;96873.59;;;16.08;41.64
47556;BME280;33291;46.222;26.460;2022-11-03T13:28:33;96842.69;;;15.86;42.08
47556;BME280;33291;46.222;26.460;2022-11-03T13:30:59;96867.66;;;15.98;42.45
47556;BME280;33291;46.222;26.460;2022-11-03T13:33:24;96871.91;;;15.91;42.48
47556;BME280;33291;46.222;26.460;2022-11-03T13:35:50;96875.53;;;15.98;42.59
47556;BME280;33291;46.222;26.460;2022-11-03T13:38:15;96873.59;;;16.25;42.22
47556;BME280;33291;46.222;26.460;2022-11-03T13:40:40;96872.59;;;16.17;42.42
47556;BME280;33291;46.222;26.460;2022-11-03T13:43:06;96871.44;;;16.12;42.76
47556;BME280;33291;46.222;26.460;2022-11-03T13:45:31;96866.66;;;16.32;42.76
47556;BME280;33291;46.222;26.460;2022-11-03T13:47:57;96874.03;;;16.45;42.18
47556;BME280;33291;46.222;26.460;2022-11-03T13:50:22;96874.47;;;16.81;41.56
47556;BME280;33291;46.222;26.460;2022-11-03T13:52:48;96869.13;;;17.14;41.09
47556;BME280;33291;46.222;26.460;2022-11-03T13:55:14;96873.00;;;16.87;41.42
47556;BME280;33291;46.222;26.460;2022-11-03T13:57:40;96873.88;;;16.46;42.50
47556;BME280;33291;46.222;26.460;2022-11-03T14:00:06;96881.13;;;16.20;43.18
47556;BME280;33291;46.222;26.460;2022-11-03T14:02:33;96880.16;;;15.96;43.82
47556;BME280;33291;46.222;26.460;2022-11-03T14:04:58;96875.50;;;15.73;44.45
47556;BME280;33291;46.222;26.460;2022-11-03T14:07:24;96862.66;;;15.54;45.08
47556;BME280;33291;46.222;26.460;2022-11-03T14:09:49;96881.19;;;15.52;45.20
47556;BME280;33291;46.222;26.460;2022-11-03T14:12:15;96885.91;;;15.40;45.41